createdAt,value
2018-09-09T00:00:01.207Z,12.70
2018-09-09T00:02:29.767Z,12.70
2018-09-09T00:04:58.353Z,12.60
2018-09-09T00:07:27.099Z,12.40
2018-09-09T00:09:55.653Z,12.40
2018-09-09T00:12:24.296Z,12.30
2018-09-09T00:14:52.940Z,12.20
2018-09-09T00:17:21.526Z,12.20
2018-09-09T00:19:50.164Z,12.20
2018-09-09T00:22:18.783Z,12.20
2018-09-09T00:24:47.353Z,12.20
2018-09-09T00:27:15.947Z,12.20
2018-09-09T00:29:44.495Z,12.10
2018-09-09T00:32:13.078Z,12.10
2018-09-09T00:34:41.800Z,12.20
2018-09-09T00:37:10.358Z,12.20
2018-09-09T00:39:38.944Z,12.10
2018-09-09T00:42:07.526Z,12.00
2018-09-09T00:44:36.112Z,12.00
2018-09-09T00:47:04.847Z,12.10
2018-09-09T00:49:39.616Z,12.10
2018-09-09T00:52:13.641Z,12.10
2018-09-09T00:54:42.304Z,12.10
2018-09-09T00:57:10.923Z,12.10
2018-09-09T00:59:39.505Z,12.10
2018-09-09T01:02:08.101Z,12.10
2018-09-09T01:04:36.685Z,12.00
2018-09-09T01:07:06.406Z,12.00
2018-09-09T01:09:35.084Z,12.10
2018-09-09T01:12:04.558Z,12.10
2018-09-09T01:14:33.980Z,12.10
2018-09-09T01:17:02.600Z,12.10
2018-09-09T01:19:31.284Z,12.10
2018-09-09T01:21:59.849Z,12.00
2018-09-09T01:24:28.438Z,12.00
2018-09-09T01:26:57.018Z,12.10
2018-09-09T01:29:25.680Z,12.00
2018-09-09T01:31:54.364Z,12.00
2018-09-09T01:34:22.972Z,11.90
2018-09-09T01:36:51.669Z,11.80
2018-09-09T01:39:20.210Z,11.80
2018-09-09T01:41:48.836Z,11.80
2018-09-09T01:44:17.469Z,11.80
2018-09-09T01:46:46.147Z,11.90
2018-09-09T01:49:14.814Z,11.80
2018-09-09T01:51:43.402Z,11.90
2018-09-09T01:54:12.021Z,11.90
2018-09-09T01:56:40.655Z,11.90
2018-09-09T01:59:09.259Z,11.90
2018-09-09T02:01:38.870Z,11.90
2018-09-09T02:04:07.468Z,12.00
2018-09-09T02:06:36.041Z,11.90
2018-09-09T02:09:05.558Z,11.90
2018-09-09T02:11:34.134Z,11.90
2018-09-09T02:14:02.711Z,11.90
2018-09-09T02:16:31.304Z,11.90
2018-09-09T02:18:59.880Z,11.90
2018-09-09T02:21:28.435Z,11.90
2018-09-09T02:23:57.064Z,11.90
2018-09-09T02:26:25.620Z,11.80
2018-09-09T02:28:54.227Z,11.80
2018-09-09T02:31:26.823Z,11.80
2018-09-09T02:33:55.364Z,11.80
2018-09-09T02:36:24.058Z,11.70
2018-09-09T02:38:52.570Z,11.70
2018-09-09T02:41:21.141Z,11.70
2018-09-09T02:43:49.803Z,11.70
2018-09-09T02:46:18.313Z,11.70
2018-09-09T02:48:46.929Z,11.70
2018-09-09T02:51:15.518Z,11.70
2018-09-09T02:53:44.120Z,11.70
2018-09-09T02:56:12.956Z,11.70
2018-09-09T02:58:41.818Z,11.70
2018-09-09T03:01:10.745Z,11.70
2018-09-09T03:03:39.623Z,11.70
2018-09-09T03:06:08.416Z,11.80
2018-09-09T03:08:37.289Z,11.80
2018-09-09T03:11:11.252Z,11.80
2018-09-09T03:13:40.157Z,11.70
2018-09-09T03:16:08.739Z,11.70
2018-09-09T03:18:37.336Z,11.70
2018-09-09T03:21:05.969Z,11.60
2018-09-09T03:23:34.859Z,11.70
2018-09-09T03:26:03.454Z,11.60
2018-09-09T03:28:32.880Z,11.60
2018-09-09T03:31:01.511Z,11.60
2018-09-09T03:33:30.115Z,11.60
2018-09-09T03:35:58.648Z,11.60
2018-09-09T03:38:27.253Z,11.60
2018-09-09T03:40:55.890Z,11.50
2018-09-09T03:43:24.416Z,11.50
2018-09-09T03:45:53.150Z,11.50
2018-09-09T03:48:21.709Z,11.50
2018-09-09T03:50:50.361Z,11.50
2018-09-09T03:53:18.929Z,11.50
2018-09-09T03:55:47.552Z,11.40
2018-09-09T03:58:16.069Z,11.40
2018-09-09T04:00:44.709Z,11.40
2018-09-09T04:03:13.320Z,11.40
2018-09-09T04:05:42.031Z,11.40
2018-09-09T04:08:10.647Z,11.40
2018-09-09T04:10:39.316Z,11.30
2018-09-09T04:13:07.908Z,11.30
2018-09-09T04:15:36.558Z,11.40
2018-09-09T04:18:05.273Z,11.30
2018-09-09T04:20:33.940Z,11.30
2018-09-09T04:23:02.610Z,11.30
2018-09-09T04:25:31.199Z,11.30
2018-09-09T04:27:59.846Z,11.30
2018-09-09T04:30:28.450Z,11.20
2018-09-09T04:32:57.115Z,11.10
2018-09-09T04:35:25.713Z,11.10
2018-09-09T04:37:54.391Z,11.00
2018-09-09T04:40:22.973Z,11.00
2018-09-09T04:42:51.637Z,11.00
2018-09-09T04:45:20.194Z,10.90
2018-09-09T04:47:48.820Z,10.90
2018-09-09T04:50:17.375Z,10.90
2018-09-09T04:52:45.990Z,10.80
2018-09-09T04:55:14.585Z,10.90
2018-09-09T04:57:43.188Z,10.90
2018-09-09T05:00:11.789Z,10.90
2018-09-09T05:02:40.395Z,10.90
2018-09-09T05:05:09.149Z,10.90
2018-09-09T05:07:37.931Z,11.00
2018-09-09T05:10:06.867Z,11.10
2018-09-09T05:12:35.695Z,11.20
2018-09-09T05:15:04.817Z,11.30
2018-09-09T05:17:33.907Z,11.30
2018-09-09T05:20:02.793Z,11.30
2018-09-09T05:22:33.764Z,11.40
2018-09-09T05:25:03.663Z,11.50
2018-09-09T05:27:32.607Z,11.50
2018-09-09T05:30:01.480Z,11.50
2018-09-09T05:32:30.329Z,11.60
2018-09-09T05:34:58.872Z,11.60
2018-09-09T05:37:27.494Z,11.70
2018-09-09T05:39:56.115Z,11.80
2018-09-09T05:42:24.721Z,11.90
2018-09-09T05:44:53.337Z,12.10
2018-09-09T05:47:21.989Z,12.20
2018-09-09T05:49:50.558Z,12.40
2018-09-09T05:52:19.140Z,12.50
2018-09-09T05:54:47.786Z,12.60
2018-09-09T05:57:16.446Z,12.70
2018-09-09T05:59:46.023Z,12.80
2018-09-09T06:02:14.707Z,12.90
2018-09-09T06:04:43.302Z,13.00
2018-09-09T06:07:11.962Z,13.20
2018-09-09T06:09:47.365Z,13.30
2018-09-09T06:12:15.934Z,13.30
2018-09-09T06:14:44.546Z,13.40
2018-09-09T06:17:13.200Z,13.50
2018-09-09T06:19:41.786Z,13.60
2018-09-09T06:22:10.837Z,13.60
2018-09-09T06:24:40.491Z,13.70
2018-09-09T06:27:09.128Z,13.70
2018-09-09T06:29:37.646Z,13.80
2018-09-09T06:32:06.437Z,13.80
2018-09-09T06:34:36.331Z,13.80
2018-09-09T06:37:05.128Z,14.00
2018-09-09T06:39:34.225Z,14.10
2018-09-09T06:42:03.057Z,14.20
2018-09-09T06:44:31.636Z,14.20
2018-09-09T06:47:00.209Z,14.30
2018-09-09T06:49:28.839Z,14.30
2018-09-09T06:51:57.425Z,14.40
2018-09-09T06:54:26.044Z,14.60
2018-09-09T06:56:54.943Z,14.80
2018-09-09T06:59:23.545Z,15.00
2018-09-09T07:01:52.421Z,15.10
2018-09-09T07:04:21.056Z,15.30
2018-09-09T07:06:49.720Z,15.50
2018-09-09T07:09:18.284Z,15.50
2018-09-09T07:11:47.030Z,15.50
2018-09-09T07:14:15.542Z,15.70
2018-09-09T07:16:46.369Z,15.80
2018-09-09T07:19:15.188Z,15.90
2018-09-09T07:21:43.902Z,15.90
2018-09-09T07:24:12.529Z,16.00
2018-09-09T07:26:41.259Z,16.10
2018-09-09T07:29:09.925Z,16.20
2018-09-09T07:31:38.484Z,16.30
2018-09-09T07:34:07.433Z,16.40
2018-09-09T07:36:36.085Z,16.50
2018-09-09T07:39:05.865Z,16.50
2018-09-09T07:41:34.529Z,16.60
2018-09-09T07:44:03.443Z,16.70
2018-09-09T07:46:32.307Z,16.80
2018-09-09T07:49:01.072Z,16.90
2018-09-09T07:51:29.819Z,16.80
2018-09-09T07:53:58.555Z,16.90
2018-09-09T07:56:27.401Z,17.00
2018-09-09T07:58:56.241Z,17.10
2018-09-09T08:01:24.993Z,17.50
2018-09-09T08:03:53.673Z,17.70
2018-09-09T08:06:22.470Z,17.80
2018-09-09T08:08:51.328Z,18.10
2018-09-09T08:11:20.105Z,18.20
2018-09-09T08:13:49.028Z,18.30
2018-09-09T08:16:18.104Z,18.40
2018-09-09T08:18:47.016Z,18.60
2018-09-09T08:21:15.734Z,18.70
2018-09-09T08:23:44.427Z,18.80
2018-09-09T08:26:14.196Z,18.90
2018-09-09T08:28:42.787Z,18.80
2018-09-09T08:31:11.376Z,18.90
2018-09-09T08:33:39.904Z,19.10
2018-09-09T08:36:08.547Z,19.10
2018-09-09T08:38:37.210Z,19.30
2018-09-09T08:41:06.364Z,19.30
2018-09-09T08:43:35.085Z,19.30
2018-09-09T08:46:03.925Z,19.40
2018-09-09T08:48:32.598Z,19.40
2018-09-09T08:51:03.707Z,19.60
2018-09-09T08:53:32.512Z,19.60
2018-09-09T08:56:01.072Z,19.60
2018-09-09T08:58:29.707Z,19.80
2018-09-09T09:00:58.302Z,19.90
2018-09-09T09:03:26.944Z,19.90
2018-09-09T09:05:56.560Z,20.00
2018-09-09T09:08:25.093Z,20.20
2018-09-09T09:10:53.751Z,20.20
2018-09-09T09:13:22.381Z,20.40
2018-09-09T09:15:50.990Z,20.70
2018-09-09T09:18:19.541Z,20.80
2018-09-09T09:20:48.255Z,20.90
2018-09-09T09:23:16.919Z,21.10
2018-09-09T09:25:52.019Z,21.40
2018-09-09T09:28:21.430Z,21.70
2018-09-09T09:30:50.548Z,21.90
2018-09-09T09:33:19.084Z,22.20
2018-09-09T09:35:52.157Z,22.30
2018-09-09T09:38:22.079Z,22.50
2018-09-09T09:40:51.643Z,22.60
2018-09-09T09:43:20.485Z,22.80
2018-09-09T09:45:49.174Z,23.00
2018-09-09T09:48:17.731Z,23.00
2018-09-09T09:50:46.347Z,23.10
2018-09-09T09:53:14.934Z,23.20
2018-09-09T09:55:43.541Z,23.40
2018-09-09T09:58:12.140Z,23.60
2018-09-09T10:00:47.097Z,23.70
2018-09-09T10:03:15.803Z,24.00
2018-09-09T10:05:44.484Z,24.10
2018-09-09T10:08:13.051Z,24.30
2018-09-09T10:10:41.743Z,24.30
2018-09-09T10:13:10.326Z,24.40
2018-09-09T10:15:39.027Z,24.80
2018-09-09T10:18:07.716Z,25.00
2018-09-09T10:20:43.179Z,25.20
2018-09-09T10:23:11.789Z,25.80
2018-09-09T10:25:40.550Z,26.00
2018-09-09T10:28:09.162Z,26.20
2018-09-09T10:30:38.070Z,26.50
2018-09-09T10:33:06.842Z,26.80
2018-09-09T10:35:35.639Z,26.80
2018-09-09T10:38:04.475Z,27.20
2018-09-09T10:40:33.375Z,27.50
2018-09-09T10:43:02.115Z,27.90
2018-09-09T10:45:31.157Z,27.40
2018-09-09T10:47:59.922Z,27.30
2018-09-09T10:50:28.816Z,27.40
2018-09-09T10:52:57.504Z,27.50
2018-09-09T10:55:27.344Z,27.40
2018-09-09T10:57:56.013Z,27.10
2018-09-09T11:00:24.843Z,27.00
2018-09-09T11:02:53.645Z,26.70
2018-09-09T11:05:22.420Z,26.40
2018-09-09T11:07:51.433Z,26.30
2018-09-09T11:10:20.201Z,26.30
2018-09-09T11:12:49.048Z,26.40
2018-09-09T11:15:18.854Z,26.50
2018-09-09T11:17:48.745Z,26.60
2018-09-09T11:20:17.538Z,26.70
2018-09-09T11:22:46.339Z,26.80
2018-09-09T11:25:19.053Z,27.00
2018-09-09T11:27:47.966Z,27.20
2018-09-09T11:30:16.756Z,27.30
2018-09-09T11:32:45.512Z,27.40
2018-09-09T11:35:14.382Z,27.50
2018-09-09T11:37:43.311Z,27.60
2018-09-09T11:40:12.195Z,27.50
2018-09-09T11:42:41.133Z,27.40
2018-09-09T11:45:10.145Z,27.20
2018-09-09T11:47:38.988Z,27.20
2018-09-09T11:50:07.874Z,27.40
2018-09-09T11:52:36.975Z,27.40
2018-09-09T11:55:06.042Z,27.30
2018-09-09T11:57:34.908Z,27.20
2018-09-09T12:00:03.721Z,27.20
2018-09-09T12:02:32.471Z,27.20
2018-09-09T12:05:01.227Z,27.40
2018-09-09T12:07:30.083Z,27.30
2018-09-09T12:09:58.910Z,27.30
2018-09-09T12:12:28.302Z,27.30
2018-09-09T12:14:58.643Z,27.20
2018-09-09T12:17:27.416Z,27.20
2018-09-09T12:19:56.311Z,27.20
2018-09-09T12:22:24.995Z,27.40
2018-09-09T12:24:54.740Z,27.50
2018-09-09T12:27:23.386Z,27.50
2018-09-09T12:29:54.160Z,27.20
2018-09-09T12:32:23.099Z,27.30
2018-09-09T12:34:52.005Z,27.10
2018-09-09T12:37:20.944Z,27.00
2018-09-09T12:39:49.991Z,27.10
2018-09-09T12:42:19.145Z,27.20
2018-09-09T12:44:53.417Z,27.20
2018-09-09T12:47:28.166Z,27.30
2018-09-09T12:49:57.212Z,27.30
2018-09-09T12:52:26.252Z,27.60
2018-09-09T12:54:55.156Z,27.70
2018-09-09T12:57:25.992Z,27.80
2018-09-09T12:59:54.897Z,27.90
2018-09-09T13:02:23.691Z,27.80
2018-09-09T13:04:52.486Z,27.90
2018-09-09T13:07:21.495Z,28.10
2018-09-09T13:09:51.408Z,28.20
2018-09-09T13:12:20.309Z,28.20
2018-09-09T13:14:49.172Z,27.90
2018-09-09T13:17:18.042Z,27.70
2018-09-09T13:19:49.756Z,27.70
2018-09-09T13:22:18.648Z,27.70
2018-09-09T13:24:48.454Z,27.90
2018-09-09T13:27:17.237Z,27.90
2018-09-09T13:29:47.073Z,27.90
2018-09-09T13:32:15.965Z,27.90
2018-09-09T13:34:44.683Z,28.00
2018-09-09T13:37:13.737Z,28.20
2018-09-09T13:39:43.642Z,28.20
2018-09-09T13:42:16.532Z,28.10
2018-09-09T13:44:45.387Z,28.10
2018-09-09T13:47:14.431Z,28.30
2018-09-09T13:49:45.227Z,28.30
2018-09-09T13:52:13.934Z,28.40
2018-09-09T13:54:45.952Z,28.50
2018-09-09T13:57:14.618Z,28.50
2018-09-09T13:59:44.388Z,28.40
2018-09-09T14:02:13.181Z,28.30
2018-09-09T14:04:41.883Z,28.40
2018-09-09T14:07:11.117Z,28.40
2018-09-09T14:09:40.266Z,28.20
2018-09-09T14:12:09.618Z,28.10
2018-09-09T14:14:38.678Z,28.20
2018-09-09T14:17:07.408Z,28.30
2018-09-09T14:19:36.208Z,28.30
2018-09-09T14:22:05.079Z,28.30
2018-09-09T14:24:33.849Z,28.40
2018-09-09T14:27:02.517Z,28.60
2018-09-09T14:29:31.248Z,28.60
2018-09-09T14:31:59.905Z,28.70
2018-09-09T14:34:28.618Z,28.70
2018-09-09T14:36:57.580Z,28.60
2018-09-09T14:39:26.675Z,28.60
2018-09-09T14:41:55.818Z,28.70
2018-09-09T14:44:24.873Z,28.70
2018-09-09T14:46:53.599Z,28.70
2018-09-09T14:49:22.295Z,28.90
2018-09-09T14:51:51.022Z,28.90
2018-09-09T14:54:20.780Z,28.60
2018-09-09T14:56:49.487Z,28.60
2018-09-09T14:59:18.620Z,28.60
2018-09-09T15:01:47.423Z,28.70
2018-09-09T15:04:16.523Z,28.60
2018-09-09T15:06:45.614Z,28.30
2018-09-09T15:09:14.666Z,28.20
2018-09-09T15:11:43.717Z,28.40
2018-09-09T15:14:12.842Z,28.40
2018-09-09T15:16:41.747Z,28.20
2018-09-09T15:19:10.634Z,27.80
2018-09-09T15:21:39.306Z,27.70
2018-09-09T15:24:08.511Z,27.60
2018-09-09T15:26:37.261Z,27.70
2018-09-09T15:29:06.231Z,27.70
2018-09-09T15:31:34.952Z,27.90
2018-09-09T15:34:03.800Z,28.00
2018-09-09T15:36:32.488Z,28.10
2018-09-09T15:39:01.104Z,28.20
2018-09-09T15:41:29.747Z,28.30
2018-09-09T15:43:58.452Z,28.40
2018-09-09T15:46:27.158Z,28.60
2018-09-09T15:48:56.051Z,28.60
2018-09-09T15:51:24.750Z,28.60
2018-09-09T15:53:53.494Z,28.60
2018-09-09T15:56:22.241Z,28.50
2018-09-09T15:58:50.964Z,28.40
2018-09-09T16:01:19.692Z,28.20
2018-09-09T16:03:48.401Z,28.20
2018-09-09T16:06:17.220Z,28.10
2018-09-09T16:08:45.962Z,28.10
2018-09-09T16:11:14.645Z,28.20
2018-09-09T16:13:43.413Z,28.10
2018-09-09T16:16:12.230Z,28.00
2018-09-09T16:18:41.333Z,27.80
2018-09-09T16:21:10.200Z,27.80
2018-09-09T16:23:39.163Z,27.80
2018-09-09T16:26:07.837Z,27.80
2018-09-09T16:28:36.686Z,28.00
2018-09-09T16:31:05.315Z,28.00
2018-09-09T16:33:34.068Z,28.00
2018-09-09T16:36:02.845Z,28.10
2018-09-09T16:38:31.605Z,28.30
2018-09-09T16:41:00.252Z,28.60
2018-09-09T16:43:29.090Z,29.20
2018-09-09T16:45:58.025Z,29.60
2018-09-09T16:48:26.610Z,30.00
2018-09-09T16:50:55.278Z,30.50
2018-09-09T16:53:23.991Z,30.80
2018-09-09T16:55:53.025Z,31.00
2018-09-09T16:58:21.706Z,31.10
2018-09-09T17:00:50.455Z,31.20
2018-09-09T17:03:19.147Z,31.30
2018-09-09T17:05:47.822Z,31.20
2018-09-09T17:08:16.652Z,31.30
2018-09-09T17:10:45.367Z,31.30
2018-09-09T17:13:14.061Z,31.00
2018-09-09T17:15:42.882Z,30.30
2018-09-09T17:18:11.574Z,29.70
2018-09-09T17:20:40.363Z,29.30
2018-09-09T17:23:09.082Z,28.60
2018-09-09T17:25:37.882Z,27.70
2018-09-09T17:28:06.566Z,26.90
2018-09-09T17:30:35.195Z,26.00
2018-09-09T17:33:03.893Z,25.50
2018-09-09T17:35:32.633Z,24.80
2018-09-09T17:38:01.431Z,24.20
2018-09-09T17:40:30.233Z,23.50
2018-09-09T17:42:58.892Z,22.80
2018-09-09T17:45:27.606Z,22.40
2018-09-09T17:47:56.292Z,21.90
2018-09-09T17:50:25.027Z,21.30
2018-09-09T17:52:53.777Z,21.20
2018-09-09T17:55:22.538Z,21.00
2018-09-09T17:57:51.318Z,20.90
2018-09-09T18:00:20.002Z,20.70
2018-09-09T18:02:48.951Z,20.60
2018-09-09T18:05:17.682Z,20.40
2018-09-09T18:07:46.510Z,20.20
2018-09-09T18:10:15.349Z,20.10
2018-09-09T18:12:44.041Z,19.90
2018-09-09T18:15:12.871Z,19.80
2018-09-09T18:17:41.548Z,19.70
2018-09-09T18:20:10.252Z,19.60
2018-09-09T18:22:38.995Z,19.50
2018-09-09T18:25:07.736Z,19.40
2018-09-09T18:27:36.449Z,19.30
2018-09-09T18:30:05.402Z,19.30
2018-09-09T18:32:34.249Z,19.20
2018-09-09T18:35:03.191Z,19.10
2018-09-09T18:37:31.947Z,19.10
2018-09-09T18:40:00.850Z,19.20
2018-09-09T18:42:29.643Z,19.20
2018-09-09T18:44:58.452Z,19.20
2018-09-09T18:47:27.258Z,19.10
2018-09-09T18:49:57.181Z,19.10
2018-09-09T18:52:26.930Z,19.10
2018-09-09T18:54:55.877Z,19.00
2018-09-09T18:57:24.635Z,18.90
2018-09-09T18:59:53.562Z,18.80
2018-09-09T19:02:22.438Z,18.80
2018-09-09T19:04:51.469Z,18.80
2018-09-09T19:07:20.510Z,18.80
2018-09-09T19:09:49.257Z,18.80
2018-09-09T19:12:18.100Z,18.70
2018-09-09T19:14:47.231Z,18.70
2018-09-09T19:17:16.003Z,18.50
2018-09-09T19:19:44.818Z,18.30
2018-09-09T19:22:13.597Z,18.10
2018-09-09T19:24:42.476Z,18.10
2018-09-09T19:27:11.370Z,18.00
2018-09-09T19:29:40.136Z,18.00
2018-09-09T19:32:09.090Z,18.00
2018-09-09T19:34:39.024Z,17.90
2018-09-09T19:37:07.723Z,17.90
2018-09-09T19:39:36.422Z,17.80
2018-09-09T19:42:05.049Z,17.70
2018-09-09T19:44:33.781Z,17.40
2018-09-09T19:47:02.618Z,17.20
2018-09-09T19:49:31.362Z,17.10
2018-09-09T19:52:00.081Z,17.00
2018-09-09T19:54:28.826Z,17.00
2018-09-09T19:56:57.726Z,17.00
2018-09-09T19:59:26.512Z,17.00
2018-09-09T20:01:55.316Z,17.00
2018-09-09T20:04:24.234Z,17.00
2018-09-09T20:06:53.025Z,17.00
2018-09-09T20:09:21.772Z,16.90
2018-09-09T20:11:50.518Z,16.90
2018-09-09T20:14:19.178Z,16.90
2018-09-09T20:16:47.906Z,16.80
2018-09-09T20:19:16.589Z,16.70
2018-09-09T20:21:45.319Z,16.50
2018-09-09T20:24:14.064Z,16.40
2018-09-09T20:26:42.724Z,16.20
2018-09-09T20:29:11.462Z,16.20
2018-09-09T20:31:40.199Z,16.10
2018-09-09T20:34:08.991Z,16.20
2018-09-09T20:36:37.685Z,16.20
2018-09-09T20:39:08.874Z,16.10
2018-09-09T20:41:37.633Z,16.00
2018-09-09T20:44:06.968Z,16.00
2018-09-09T20:46:35.732Z,15.90
2018-09-09T20:49:04.573Z,15.80
2018-09-09T20:51:33.217Z,15.80
2018-09-09T20:54:01.923Z,15.90
2018-09-09T20:56:30.703Z,15.90
2018-09-09T20:58:59.427Z,15.90
2018-09-09T21:01:28.056Z,15.80
2018-09-09T21:03:56.751Z,15.70
2018-09-09T21:06:25.386Z,15.60
2018-09-09T21:08:54.122Z,15.50
2018-09-09T21:11:22.875Z,15.40
2018-09-09T21:13:51.536Z,15.30
2018-09-09T21:16:20.389Z,15.30
2018-09-09T21:18:49.066Z,15.30
2018-09-09T21:21:17.748Z,15.20
2018-09-09T21:23:46.436Z,15.20
2018-09-09T21:26:15.181Z,15.20
2018-09-09T21:28:43.754Z,15.10
2018-09-09T21:31:12.454Z,15.10
2018-09-09T21:33:41.112Z,15.10
2018-09-09T21:36:09.702Z,15.20
2018-09-09T21:38:38.394Z,15.20
2018-09-09T21:41:07.074Z,15.10
2018-09-09T21:43:35.794Z,15.10
2018-09-09T21:46:04.552Z,15.10
2018-09-09T21:48:33.244Z,15.00
2018-09-09T21:51:01.881Z,15.00
2018-09-09T21:53:30.618Z,15.00
2018-09-09T21:55:59.258Z,15.00
2018-09-09T21:58:27.886Z,15.00
2018-09-09T22:01:01.638Z,14.90
2018-09-09T22:03:30.387Z,14.80
2018-09-09T22:05:59.087Z,14.60
2018-09-09T22:08:27.735Z,14.50
2018-09-09T22:10:56.434Z,14.40
2018-09-09T22:13:25.132Z,14.40
2018-09-09T22:15:53.859Z,14.40
2018-09-09T22:18:22.647Z,14.30
2018-09-09T22:20:51.376Z,14.40
2018-09-09T22:23:20.075Z,14.40
2018-09-09T22:25:48.810Z,14.40
2018-09-09T22:28:23.846Z,14.40
2018-09-09T22:30:52.631Z,14.40
2018-09-09T22:33:21.373Z,14.30
2018-09-09T22:35:50.166Z,14.30
2018-09-09T22:38:18.795Z,14.30
2018-09-09T22:40:47.514Z,14.40
2018-09-09T22:43:16.256Z,14.40
2018-09-09T22:45:49.460Z,14.30
2018-09-09T22:48:19.087Z,14.20
2018-09-09T22:50:48.131Z,14.20
2018-09-09T22:53:16.860Z,14.20
2018-09-09T22:55:45.574Z,14.10
2018-09-09T22:58:14.139Z,14.00
2018-09-09T23:00:42.890Z,13.90
2018-09-09T23:03:11.547Z,13.80
2018-09-09T23:05:40.506Z,13.80
2018-09-09T23:08:09.134Z,13.80
2018-09-09T23:10:37.838Z,13.80
2018-09-09T23:13:06.609Z,13.80
2018-09-09T23:15:35.320Z,13.80
2018-09-09T23:18:04.038Z,13.80
2018-09-09T23:20:32.709Z,13.80
2018-09-09T23:23:01.398Z,13.80
2018-09-09T23:25:30.170Z,13.80
2018-09-09T23:27:58.799Z,13.80
2018-09-09T23:30:27.494Z,13.70
2018-09-09T23:32:56.131Z,13.70
2018-09-09T23:35:24.874Z,13.70
2018-09-09T23:37:53.555Z,13.70
2018-09-09T23:40:22.274Z,13.60
2018-09-09T23:42:50.969Z,13.60
2018-09-09T23:45:19.680Z,13.60
2018-09-09T23:47:48.400Z,13.50
2018-09-09T23:50:17.062Z,13.50
2018-09-09T23:52:45.768Z,13.50
2018-09-09T23:55:14.488Z,13.50
2018-09-09T23:57:43.213Z,13.40
